sensor_id;sensor_type;location;lat;lon;timestamp;temperature;humidity
7518;DHT22;3800;48.922;9.444;2022-08-19T00:00:54;20.90;99.90
7518;DHT22;3800;48.922;9.444;2022-08-19T00:03:22;20.90;99.90
7518;DHT22;3800;48.922;9.444;2022-08-19T00:05:52;20.80;99.90
7518;DHT22;3800;48.922;9.444;2022-08-19T00:08:20;20.80;99.90
7518;DHT22;3800;48.922;9.444;2022-08-19T00:10:49;20.80;99.90
7518;DHT22;3800;48.922;9.444;2022-08-19T00:13:18;20.80;99.90
7518;DHT22;3800;48.922;9.444;2022-08-19T00:15:46;20.80;99.90
7518;DHT22;3800;48.922;9.444;2022-08-19T00:18:14;20.80;99.90
7518;DHT22;3800;48.922;9.444;2022-08-19T00:20:42;20.80;99.90
7518;DHT22;3800;48.922;9.444;2022-08-19T00:23:11;20.80;99.90
7518;DHT22;3800;48.922;9.444;2022-08-19T00:25:39;20.70;99.90
7518;DHT22;3800;48.922;9.444;2022-08-19T00:28:07;20.70;99.90
7518;DHT22;3800;48.922;9.444;2022-08-19T00:30:35;20.70;99.90
7518;DHT22;3800;48.922;9.444;2022-08-19T00:33:04;20.70;99.90
7518;DHT22;3800;48.922;9.444;2022-08-19T00:35:32;20.70;99.90
7518;DHT22;3800;48.922;9.444;2022-08-19T00:38:00;20.70;99.90
7518;DHT22;3800;48.922;9.444;2022-08-19T00:40:29;20.70;99.90
7518;DHT22;3800;48.922;9.444;2022-08-19T00:42:57;20.70;99.90
7518;DHT22;3800;48.922;9.444;2022-08-19T00:45:26;20.60;99.90
7518;DHT22;3800;48.922;9.444;2022-08-19T00:47:53;20.70;99.90
7518;DHT22;3800;48.922;9.444;2022-08-19T00:50:22;20.60;99.90
7518;DHT22;3800;48.922;9.444;2022-08-19T00:52:50;20.60;99.90
7518;DHT22;3800;48.922;9.444;2022-08-19T00:55:20;20.60;99.90
7518;DHT22;3800;48.922;9.444;2022-08-19T00:57:50;20.60;99.90
7518;DHT22;3800;48.922;9.444;2022-08-19T01:00:19;20.60;99.90
7518;DHT22;3800;48.922;9.444;2022-08-19T01:02:47;20.60;99.90
7518;DHT22;3800;48.922;9.444;2022-08-19T01:05:17;20.60;99.90
7518;DHT22;3800;48.922;9.444;2022-08-19T01:07:44;20.50;99.90
7518;DHT22;3800;48.922;9.444;2022-08-19T01:10:15;20.60;99.90
7518;DHT22;3800;48.922;9.444;2022-08-19T01:12:42;20.50;99.90
7518;DHT22;3800;48.922;9.444;2022-08-19T01:15:12;20.60;99.90
7518;DHT22;3800;48.922;9.444;2022-08-19T01:17:39;20.50;99.90
7518;DHT22;3800;48.922;9.444;2022-08-19T01:20:10;20.50;99.90
7518;DHT22;3800;48.922;9.444;2022-08-19T01:22:43;20.50;99.90
7518;DHT22;3800;48.922;9.444;2022-08-19T01:25:12;20.50;99.90
7518;DHT22;3800;48.922;9.444;2022-08-19T01:27:40;20.50;99.90
7518;DHT22;3800;48.922;9.444;2022-08-19T01:30:09;20.50;99.90
7518;DHT22;3800;48.922;9.444;2022-08-19T01:32:37;20.50;99.90
7518;DHT22;3800;48.922;9.444;2022-08-19T01:35:05;20.50;99.90
7518;DHT22;3800;48.922;9.444;2022-08-19T01:37:57;20.50;99.90
7518;DHT22;3800;48.922;9.444;2022-08-19T01:40:25;20.50;99.90
7518;DHT22;3800;48.922;9.444;2022-08-19T01:42:52;20.50;99.90
7518;DHT22;3800;48.922;9.444;2022-08-19T01:45:21;20.50;99.90
7518;DHT22;3800;48.922;9.444;2022-08-19T01:47:49;20.50;99.90
7518;DHT22;3800;48.922;9.444;2022-08-19T01:50:18;20.40;99.90
7518;DHT22;3800;48.922;9.444;2022-08-19T01:52:46;20.40;99.90
7518;DHT22;3800;48.922;9.444;2022-08-19T01:55:16;20.40;99.90
7518;DHT22;3800;48.922;9.444;2022-08-19T01:57:44;20.40;99.90
7518;DHT22;3800;48.922;9.444;2022-08-19T02:00:12;20.40;99.90
7518;DHT22;3800;48.922;9.444;2022-08-19T02:02:41;20.30;99.90
7518;DHT22;3800;48.922;9.444;2022-08-19T02:05:10;20.30;99.90
7518;DHT22;3800;48.922;9.444;2022-08-19T02:07:38;20.30;99.90
7518;DHT22;3800;48.922;9.444;2022-08-19T02:10:08;20.30;99.90
7518;DHT22;3800;48.922;9.444;2022-08-19T02:12:36;20.30;99.90
7518;DHT22;3800;48.922;9.444;2022-08-19T02:15:06;20.20;99.90
7518;DHT22;3800;48.922;9.444;2022-08-19T02:17:34;20.20;99.90
7518;DHT22;3800;48.922;9.444;2022-08-19T02:20:04;20.20;99.90
7518;DHT22;3800;48.922;9.444;2022-08-19T02:22:33;20.20;99.90
7518;DHT22;3800;48.922;9.444;2022-08-19T02:25:02;20.20;99.90
7518;DHT22;3800;48.922;9.444;2022-08-19T02:27:30;20.20;99.90
7518;DHT22;3800;48.922;9.444;2022-08-19T02:29:58;20.20;99.90
7518;DHT22;3800;48.922;9.444;2022-08-19T02:32:27;20.10;99.90
7518;DHT22;3800;48.922;9.444;2022-08-19T02:34:55;20.10;99.90
7518;DHT22;3800;48.922;9.444;2022-08-19T02:37:23;20.10;99.90
7518;DHT22;3800;48.922;9.444;2022-08-19T02:39:57;20.10;99.90
7518;DHT22;3800;48.922;9.444;2022-08-19T02:42:25;20.10;99.90
7518;DHT22;3800;48.922;9.444;2022-08-19T02:44:54;20.10;99.90
7518;DHT22;3800;48.922;9.444;2022-08-19T02:47:22;20.10;99.90
7518;DHT22;3800;48.922;9.444;2022-08-19T02:49:50;20.10;99.90
7518;DHT22;3800;48.922;9.444;2022-08-19T02:52:19;20.00;99.90
7518;DHT22;3800;48.922;9.444;2022-08-19T02:54:47;20.00;99.90
7518;DHT22;3800;48.922;9.444;2022-08-19T02:57:16;20.00;99.90
7518;DHT22;3800;48.922;9.444;2022-08-19T02:59:44;20.00;99.90
7518;DHT22;3800;48.922;9.444;2022-08-19T03:02:12;19.90;99.90
7518;DHT22;3800;48.922;9.444;2022-08-19T03:04:41;19.90;99.90
7518;DHT22;3800;48.922;9.444;2022-08-19T03:07:09;19.90;99.90
7518;DHT22;3800;48.922;9.444;2022-08-19T03:09:37;19.90;99.90
7518;DHT22;3800;48.922;9.444;2022-08-19T03:12:06;19.90;99.90
7518;DHT22;3800;48.922;9.444;2022-08-19T03:14:35;19.90;99.90
7518;DHT22;3800;48.922;9.444;2022-08-19T03:17:03;19.80;99.90
7518;DHT22;3800;48.922;9.444;2022-08-19T03:19:31;19.80;99.90
7518;DHT22;3800;48.922;9.444;2022-08-19T03:22:01;19.80;99.90
7518;DHT22;3800;48.922;9.444;2022-08-19T03:24:30;19.80;99.90
7518;DHT22;3800;48.922;9.444;2022-08-19T03:26:58;19.80;99.90
7518;DHT22;3800;48.922;9.444;2022-08-19T03:29:28;19.80;99.90
7518;DHT22;3800;48.922;9.444;2022-08-19T03:31:55;19.80;99.90
7518;DHT22;3800;48.922;9.444;2022-08-19T03:34:25;19.80;99.90
7518;DHT22;3800;48.922;9.444;2022-08-19T03:36:54;19.80;99.90
7518;DHT22;3800;48.922;9.444;2022-08-19T03:39:21;19.80;99.90
7518;DHT22;3800;48.922;9.444;2022-08-19T03:41:50;19.80;99.90
7518;DHT22;3800;48.922;9.444;2022-08-19T03:44:19;19.70;99.90
7518;DHT22;3800;48.922;9.444;2022-08-19T03:46:47;19.70;99.90
7518;DHT22;3800;48.922;9.444;2022-08-19T03:49:15;19.70;99.90
7518;DHT22;3800;48.922;9.444;2022-08-19T03:51:43;19.70;99.90
7518;DHT22;3800;48.922;9.444;2022-08-19T03:54:12;19.60;99.90
7518;DHT22;3800;48.922;9.444;2022-08-19T03:56:40;19.70;99.90
7518;DHT22;3800;48.922;9.444;2022-08-19T03:59:08;19.70;99.90
7518;DHT22;3800;48.922;9.444;2022-08-19T04:01:37;19.60;99.90
7518;DHT22;3800;48.922;9.444;2022-08-19T04:04:05;19.60;99.90
7518;DHT22;3800;48.922;9.444;2022-08-19T04:06:35;19.60;99.90
7518;DHT22;3800;48.922;9.444;2022-08-19T04:09:03;19.60;99.90
7518;DHT22;3800;48.922;9.444;2022-08-19T04:11:33;19.60;99.90
7518;DHT22;3800;48.922;9.444;2022-08-19T04:13:59;19.50;99.90
7518;DHT22;3800;48.922;9.444;2022-08-19T04:16:27;19.50;99.90
7518;DHT22;3800;48.922;9.444;2022-08-19T04:18:56;19.50;99.90
7518;DHT22;3800;48.922;9.444;2022-08-19T04:21:25;19.50;99.90
7518;DHT22;3800;48.922;9.444;2022-08-19T04:23:53;19.50;99.90
7518;DHT22;3800;48.922;9.444;2022-08-19T04:26:24;19.50;99.90
7518;DHT22;3800;48.922;9.444;2022-08-19T04:28:49;19.40;99.90
7518;DHT22;3800;48.922;9.444;2022-08-19T04:31:20;19.40;99.90
7518;DHT22;3800;48.922;9.444;2022-08-19T04:33:46;19.50;99.90
7518;DHT22;3800;48.922;9.444;2022-08-19T04:36:16;19.50;99.90
7518;DHT22;3800;48.922;9.444;2022-08-19T04:38:43;19.50;99.90
7518;DHT22;3800;48.922;9.444;2022-08-19T04:41:12;19.50;99.90
7518;DHT22;3800;48.922;9.444;2022-08-19T04:43:45;19.50;99.90
7518;DHT22;3800;48.922;9.444;2022-08-19T04:46:16;19.50;99.90
7518;DHT22;3800;48.922;9.444;2022-08-19T04:48:44;19.50;99.90
7518;DHT22;3800;48.922;9.444;2022-08-19T04:51:12;19.50;99.90
7518;DHT22;3800;48.922;9.444;2022-08-19T04:53:41;19.50;99.90
7518;DHT22;3800;48.922;9.444;2022-08-19T04:56:11;19.40;99.90
7518;DHT22;3800;48.922;9.444;2022-08-19T04:58:39;19.40;99.90
7518;DHT22;3800;48.922;9.444;2022-08-19T05:01:07;19.40;99.90
7518;DHT22;3800;48.922;9.444;2022-08-19T05:03:35;19.40;99.90
7518;DHT22;3800;48.922;9.444;2022-08-19T05:06:05;19.40;99.90
7518;DHT22;3800;48.922;9.444;2022-08-19T05:08:36;19.40;99.90
7518;DHT22;3800;48.922;9.444;2022-08-19T05:11:08;19.40;99.90
7518;DHT22;3800;48.922;9.444;2022-08-19T05:13:35;19.40;99.90
7518;DHT22;3800;48.922;9.444;2022-08-19T05:16:04;19.40;99.90
7518;DHT22;3800;48.922;9.444;2022-08-19T05:18:32;19.40;99.90
7518;DHT22;3800;48.922;9.444;2022-08-19T05:21:08;19.40;99.90
7518;DHT22;3800;48.922;9.444;2022-08-19T05:23:41;19.40;99.90
7518;DHT22;3800;48.922;9.444;2022-08-19T05:26:09;19.40;99.90
7518;DHT22;3800;48.922;9.444;2022-08-19T05:28:38;19.40;99.90
7518;DHT22;3800;48.922;9.444;2022-08-19T05:31:06;19.40;99.90
7518;DHT22;3800;48.922;9.444;2022-08-19T05:33:34;19.40;99.90
7518;DHT22;3800;48.922;9.444;2022-08-19T05:36:03;19.40;99.90
7518;DHT22;3800;48.922;9.444;2022-08-19T05:38:31;19.50;99.90
7518;DHT22;3800;48.922;9.444;2022-08-19T05:40:59;19.50;99.90
7518;DHT22;3800;48.922;9.444;2022-08-19T05:43:28;19.50;99.90
7518;DHT22;3800;48.922;9.444;2022-08-19T05:45:57;19.50;99.90
7518;DHT22;3800;48.922;9.444;2022-08-19T05:48:25;19.50;99.90
7518;DHT22;3800;48.922;9.444;2022-08-19T05:50:54;19.50;99.90
7518;DHT22;3800;48.922;9.444;2022-08-19T05:53:22;19.50;99.90
7518;DHT22;3800;48.922;9.444;2022-08-19T05:55:51;19.50;99.90
7518;DHT22;3800;48.922;9.444;2022-08-19T05:58:19;19.50;99.90
7518;DHT22;3800;48.922;9.444;2022-08-19T06:00:48;19.50;99.90
7518;DHT22;3800;48.922;9.444;2022-08-19T06:03:16;19.50;99.90
7518;DHT22;3800;48.922;9.444;2022-08-19T06:05:44;19.50;99.90
7518;DHT22;3800;48.922;9.444;2022-08-19T06:08:13;19.50;99.90
7518;DHT22;3800;48.922;9.444;2022-08-19T06:10:41;19.50;99.90
7518;DHT22;3800;48.922;9.444;2022-08-19T06:13:09;19.50;99.90
7518;DHT22;3800;48.922;9.444;2022-08-19T06:15:38;19.50;99.90
7518;DHT22;3800;48.922;9.444;2022-08-19T06:18:07;19.40;99.90
7518;DHT22;3800;48.922;9.444;2022-08-19T06:20:35;19.40;99.90
7518;DHT22;3800;48.922;9.444;2022-08-19T06:23:04;19.40;99.90
7518;DHT22;3800;48.922;9.444;2022-08-19T06:25:32;19.40;99.90
7518;DHT22;3800;48.922;9.444;2022-08-19T06:28:00;19.40;99.90
7518;DHT22;3800;48.922;9.444;2022-08-19T06:30:29;19.40;99.90
7518;DHT22;3800;48.922;9.444;2022-08-19T06:32:58;19.40;99.90
7518;DHT22;3800;48.922;9.444;2022-08-19T06:35:27;19.50;99.90
7518;DHT22;3800;48.922;9.444;2022-08-19T06:37:55;19.50;99.90
7518;DHT22;3800;48.922;9.444;2022-08-19T06:40:24;19.40;99.90
7518;DHT22;3800;48.922;9.444;2022-08-19T06:42:52;19.50;99.90
7518;DHT22;3800;48.922;9.444;2022-08-19T06:45:21;19.50;99.90
7518;DHT22;3800;48.922;9.444;2022-08-19T06:47:49;19.50;99.90
7518;DHT22;3800;48.922;9.444;2022-08-19T06:50:17;19.60;99.90
7518;DHT22;3800;48.922;9.444;2022-08-19T06:52:45;19.60;99.90
7518;DHT22;3800;48.922;9.444;2022-08-19T06:55:14;19.70;99.90
7518;DHT22;3800;48.922;9.444;2022-08-19T06:57:42;19.80;99.90
7518;DHT22;3800;48.922;9.444;2022-08-19T07:00:11;19.90;99.90
7518;DHT22;3800;48.922;9.444;2022-08-19T07:02:40;19.90;99.90
7518;DHT22;3800;48.922;9.444;2022-08-19T07:05:08;19.90;99.90
7518;DHT22;3800;48.922;9.444;2022-08-19T07:07:36;20.00;99.90
7518;DHT22;3800;48.922;9.444;2022-08-19T07:10:05;19.90;99.90
7518;DHT22;3800;48.922;9.444;2022-08-19T07:12:34;20.00;99.90
7518;DHT22;3800;48.922;9.444;2022-08-19T07:15:04;20.00;99.90
7518;DHT22;3800;48.922;9.444;2022-08-19T07:17:32;19.90;99.90
7518;DHT22;3800;48.922;9.444;2022-08-19T07:20:02;19.80;99.90
7518;DHT22;3800;48.922;9.444;2022-08-19T07:22:31;19.80;99.90
7518;DHT22;3800;48.922;9.444;2022-08-19T07:24:59;19.70;99.90
7518;DHT22;3800;48.922;9.444;2022-08-19T07:27:28;19.70;99.90
7518;DHT22;3800;48.922;9.444;2022-08-19T07:29:57;19.70;99.90
7518;DHT22;3800;48.922;9.444;2022-08-19T07:32:25;19.60;99.90
7518;DHT22;3800;48.922;9.444;2022-08-19T07:34:53;19.50;99.90
7518;DHT22;3800;48.922;9.444;2022-08-19T07:37:21;19.50;99.90
7518;DHT22;3800;48.922;9.444;2022-08-19T07:39:50;19.50;99.90
7518;DHT22;3800;48.922;9.444;2022-08-19T07:42:20;19.40;99.90
7518;DHT22;3800;48.922;9.444;2022-08-19T07:44:49;19.50;99.90
7518;DHT22;3800;48.922;9.444;2022-08-19T07:47:17;19.50;99.90
7518;DHT22;3800;48.922;9.444;2022-08-19T07:49:45;19.50;99.90
7518;DHT22;3800;48.922;9.444;2022-08-19T07:52:13;19.50;99.90
7518;DHT22;3800;48.922;9.444;2022-08-19T07:54:42;19.50;99.90
7518;DHT22;3800;48.922;9.444;2022-08-19T07:57:10;19.50;99.90
7518;DHT22;3800;48.922;9.444;2022-08-19T07:59:38;19.50;99.90
7518;DHT22;3800;48.922;9.444;2022-08-19T08:02:07;19.50;99.90
7518;DHT22;3800;48.922;9.444;2022-08-19T08:04:35;19.50;99.90
7518;DHT22;3800;48.922;9.444;2022-08-19T08:07:08;19.50;99.90
7518;DHT22;3800;48.922;9.444;2022-08-19T08:09:42;19.50;99.90
7518;DHT22;3800;48.922;9.444;2022-08-19T08:12:13;19.50;99.90
7518;DHT22;3800;48.922;9.444;2022-08-19T08:14:43;19.40;99.90
7518;DHT22;3800;48.922;9.444;2022-08-19T08:17:10;19.40;99.90
7518;DHT22;3800;48.922;9.444;2022-08-19T08:19:38;19.40;99.90
7518;DHT22;3800;48.922;9.444;2022-08-19T08:22:07;19.40;99.90
7518;DHT22;3800;48.922;9.444;2022-08-19T08:24:35;19.40;99.90
7518;DHT22;3800;48.922;9.444;2022-08-19T08:27:04;19.40;99.90
7518;DHT22;3800;48.922;9.444;2022-08-19T08:29:32;19.40;99.90
7518;DHT22;3800;48.922;9.444;2022-08-19T08:32:00;19.40;99.90
7518;DHT22;3800;48.922;9.444;2022-08-19T08:34:29;19.50;99.90
7518;DHT22;3800;48.922;9.444;2022-08-19T08:36:57;19.40;99.90
7518;DHT22;3800;48.922;9.444;2022-08-19T08:39:25;19.40;99.90
7518;DHT22;3800;48.922;9.444;2022-08-19T08:42:13;19.50;99.90
7518;DHT22;3800;48.922;9.444;2022-08-19T08:44:59;19.50;99.90
7518;DHT22;3800;48.922;9.444;2022-08-19T08:47:29;19.50;99.90
7518;DHT22;3800;48.922;9.444;2022-08-19T08:49:56;19.50;99.90
7518;DHT22;3800;48.922;9.444;2022-08-19T08:52:25;19.60;99.90
7518;DHT22;3800;48.922;9.444;2022-08-19T08:54:53;19.60;99.90
7518;DHT22;3800;48.922;9.444;2022-08-19T08:57:34;19.60;99.90
7518;DHT22;3800;48.922;9.444;2022-08-19T09:00:08;19.60;99.90
7518;DHT22;3800;48.922;9.444;2022-08-19T09:02:35;19.60;99.90
7518;DHT22;3800;48.922;9.444;2022-08-19T09:05:03;19.60;99.90
7518;DHT22;3800;48.922;9.444;2022-08-19T09:07:46;19.60;99.90
7518;DHT22;3800;48.922;9.444;2022-08-19T09:15:54;19.70;99.90
7518;DHT22;3800;48.922;9.444;2022-08-19T09:18:22;19.80;99.90
7518;DHT22;3800;48.922;9.444;2022-08-19T09:20:50;19.90;99.90
7518;DHT22;3800;48.922;9.444;2022-08-19T09:23:19;20.00;99.90
7518;DHT22;3800;48.922;9.444;2022-08-19T09:25:48;19.90;99.90
7518;DHT22;3800;48.922;9.444;2022-08-19T09:28:16;20.00;99.90
7518;DHT22;3800;48.922;9.444;2022-08-19T09:30:44;20.00;99.90
7518;DHT22;3800;48.922;9.444;2022-08-19T09:33:12;20.10;99.90
7518;DHT22;3800;48.922;9.444;2022-08-19T09:35:41;20.10;99.90
7518;DHT22;3800;48.922;9.444;2022-08-19T09:38:09;20.20;99.90
7518;DHT22;3800;48.922;9.444;2022-08-19T09:40:37;20.20;99.90
7518;DHT22;3800;48.922;9.444;2022-08-19T09:43:06;20.20;99.90
7518;DHT22;3800;48.922;9.444;2022-08-19T09:45:34;20.20;99.90
7518;DHT22;3800;48.922;9.444;2022-08-19T09:48:03;20.20;99.90
7518;DHT22;3800;48.922;9.444;2022-08-19T09:50:32;20.20;99.90
7518;DHT22;3800;48.922;9.444;2022-08-19T09:53:00;20.20;99.90
7518;DHT22;3800;48.922;9.444;2022-08-19T09:55:29;20.20;99.90
7518;DHT22;3800;48.922;9.444;2022-08-19T09:57:58;20.20;99.90
7518;DHT22;3800;48.922;9.444;2022-08-19T10:00:26;20.20;99.90
7518;DHT22;3800;48.922;9.444;2022-08-19T10:02:55;20.10;99.90
7518;DHT22;3800;48.922;9.444;2022-08-19T10:05:24;20.10;99.90
7518;DHT22;3800;48.922;9.444;2022-08-19T10:07:58;20.10;99.90
7518;DHT22;3800;48.922;9.444;2022-08-19T10:10:26;20.10;99.90
7518;DHT22;3800;48.922;9.444;2022-08-19T10:12:55;20.10;99.90
7518;DHT22;3800;48.922;9.444;2022-08-19T10:15:23;20.10;99.90
7518;DHT22;3800;48.922;9.444;2022-08-19T10:17:52;20.10;99.90
7518;DHT22;3800;48.922;9.444;2022-08-19T10:20:21;20.20;99.90
7518;DHT22;3800;48.922;9.444;2022-08-19T10:22:49;20.20;99.90
7518;DHT22;3800;48.922;9.444;2022-08-19T10:25:17;20.20;99.90
7518;DHT22;3800;48.922;9.444;2022-08-19T10:27:45;20.30;99.90
7518;DHT22;3800;48.922;9.444;2022-08-19T10:30:14;20.30;99.90
7518;DHT22;3800;48.922;9.444;2022-08-19T10:32:44;20.40;99.90
7518;DHT22;3800;48.922;9.444;2022-08-19T10:35:12;20.30;99.90
7518;DHT22;3800;48.922;9.444;2022-08-19T10:37:40;20.40;99.90
7518;DHT22;3800;48.922;9.444;2022-08-19T10:40:09;20.40;99.90
7518;DHT22;3800;48.922;9.444;2022-08-19T10:42:37;20.40;99.90
7518;DHT22;3800;48.922;9.444;2022-08-19T10:45:06;20.50;99.90
7518;DHT22;3800;48.922;9.444;2022-08-19T10:47:35;20.40;99.90
7518;DHT22;3800;48.922;9.444;2022-08-19T10:50:03;20.40;99.90
7518;DHT22;3800;48.922;9.444;2022-08-19T10:52:38;20.50;99.90
7518;DHT22;3800;48.922;9.444;2022-08-19T10:55:07;20.40;99.90
7518;DHT22;3800;48.922;9.444;2022-08-19T10:57:41;20.40;99.90
7518;DHT22;3800;48.922;9.444;2022-08-19T11:00:13;20.30;99.90
7518;DHT22;3800;48.922;9.444;2022-08-19T11:02:41;20.30;99.90
7518;DHT22;3800;48.922;9.444;2022-08-19T11:05:10;20.30;99.90
7518;DHT22;3800;48.922;9.444;2022-08-19T11:07:39;20.30;99.90
7518;DHT22;3800;48.922;9.444;2022-08-19T11:10:08;20.20;99.90
7518;DHT22;3800;48.922;9.444;2022-08-19T11:12:37;20.30;99.90
7518;DHT22;3800;48.922;9.444;2022-08-19T11:15:07;20.30;99.90
7518;DHT22;3800;48.922;9.444;2022-08-19T11:17:35;20.30;99.90
7518;DHT22;3800;48.922;9.444;2022-08-19T11:20:04;20.40;99.90
7518;DHT22;3800;48.922;9.444;2022-08-19T11:22:32;20.40;99.90
7518;DHT22;3800;48.922;9.444;2022-08-19T11:25:00;20.50;99.90
7518;DHT22;3800;48.922;9.444;2022-08-19T11:27:30;20.50;99.90
7518;DHT22;3800;48.922;9.444;2022-08-19T11:29:59;20.50;99.90
7518;DHT22;3800;48.922;9.444;2022-08-19T11:32:27;20.50;99.90
7518;DHT22;3800;48.922;9.444;2022-08-19T11:34:55;20.50;99.90
7518;DHT22;3800;48.922;9.444;2022-08-19T11:37:24;20.50;99.90
7518;DHT22;3800;48.922;9.444;2022-08-19T11:39:52;20.60;99.90
7518;DHT22;3800;48.922;9.444;2022-08-19T11:42:21;20.60;99.90
7518;DHT22;3800;48.922;9.444;2022-08-19T11:44:54;20.60;99.90
7518;DHT22;3800;48.922;9.444;2022-08-19T11:47:23;20.60;99.90
7518;DHT22;3800;48.922;9.444;2022-08-19T11:49:51;20.60;99.90
7518;DHT22;3800;48.922;9.444;2022-08-19T11:52:19;20.60;99.90
7518;DHT22;3800;48.922;9.444;2022-08-19T11:54:48;20.60;99.90
7518;DHT22;3800;48.922;9.444;2022-08-19T11:57:16;20.70;99.90
7518;DHT22;3800;48.922;9.444;2022-08-19T11:59:48;20.70;99.90
7518;DHT22;3800;48.922;9.444;2022-08-19T12:02:16;20.70;99.90
7518;DHT22;3800;48.922;9.444;2022-08-19T12:04:44;20.80;99.90
7518;DHT22;3800;48.922;9.444;2022-08-19T12:07:13;20.80;99.90
7518;DHT22;3800;48.922;9.444;2022-08-19T12:09:41;20.70;99.90
7518;DHT22;3800;48.922;9.444;2022-08-19T12:12:09;20.80;99.90
7518;DHT22;3800;48.922;9.444;2022-08-19T12:14:38;20.80;99.90
7518;DHT22;3800;48.922;9.444;2022-08-19T12:17:06;20.80;99.90
7518;DHT22;3800;48.922;9.444;2022-08-19T12:19:35;20.90;99.90
7518;DHT22;3800;48.922;9.444;2022-08-19T12:22:02;20.80;99.90
7518;DHT22;3800;48.922;9.444;2022-08-19T12:24:32;21.00;99.90
7518;DHT22;3800;48.922;9.444;2022-08-19T12:27:00;20.90;99.90
7518;DHT22;3800;48.922;9.444;2022-08-19T12:29:29;20.90;99.90
7518;DHT22;3800;48.922;9.444;2022-08-19T12:31:58;21.00;99.90
7518;DHT22;3800;48.922;9.444;2022-08-19T12:34:25;21.00;99.90
7518;DHT22;3800;48.922;9.444;2022-08-19T12:36:53;21.00;99.90
7518;DHT22;3800;48.922;9.444;2022-08-19T12:39:21;21.00;99.90
7518;DHT22;3800;48.922;9.444;2022-08-19T12:41:50;20.90;99.90
7518;DHT22;3800;48.922;9.444;2022-08-19T12:44:19;20.90;99.90
7518;DHT22;3800;48.922;9.444;2022-08-19T12:46:47;20.90;99.90
7518;DHT22;3800;48.922;9.444;2022-08-19T12:49:16;20.90;99.90
7518;DHT22;3800;48.922;9.444;2022-08-19T12:51:44;21.00;99.90
7518;DHT22;3800;48.922;9.444;2022-08-19T12:54:12;21.00;99.90
7518;DHT22;3800;48.922;9.444;2022-08-19T12:56:40;21.00;99.90
7518;DHT22;3800;48.922;9.444;2022-08-19T12:59:10;21.00;99.90
7518;DHT22;3800;48.922;9.444;2022-08-19T13:01:39;21.00;99.90
7518;DHT22;3800;48.922;9.444;2022-08-19T13:04:07;21.00;99.90
7518;DHT22;3800;48.922;9.444;2022-08-19T13:06:35;21.00;99.90
7518;DHT22;3800;48.922;9.444;2022-08-19T13:09:04;21.00;99.90
7518;DHT22;3800;48.922;9.444;2022-08-19T13:11:33;21.00;99.90
7518;DHT22;3800;48.922;9.444;2022-08-19T13:14:02;21.00;99.90
7518;DHT22;3800;48.922;9.444;2022-08-19T13:16:30;21.00;99.90
7518;DHT22;3800;48.922;9.444;2022-08-19T13:18:59;21.00;99.90
7518;DHT22;3800;48.922;9.444;2022-08-19T13:21:28;21.10;99.90
7518;DHT22;3800;48.922;9.444;2022-08-19T13:23:57;21.10;99.90
7518;DHT22;3800;48.922;9.444;2022-08-19T13:26:25;21.20;99.90
7518;DHT22;3800;48.922;9.444;2022-08-19T13:28:54;21.20;99.90
7518;DHT22;3800;48.922;9.444;2022-08-19T13:31:30;21.20;99.90
7518;DHT22;3800;48.922;9.444;2022-08-19T13:34:02;21.20;99.90
7518;DHT22;3800;48.922;9.444;2022-08-19T13:36:32;21.30;99.90
7518;DHT22;3800;48.922;9.444;2022-08-19T13:39:00;21.30;99.90
7518;DHT22;3800;48.922;9.444;2022-08-19T13:41:28;21.30;99.90
7518;DHT22;3800;48.922;9.444;2022-08-19T13:43:56;21.30;99.90
7518;DHT22;3800;48.922;9.444;2022-08-19T13:46:24;21.40;99.90
7518;DHT22;3800;48.922;9.444;2022-08-19T13:48:53;21.40;99.90
7518;DHT22;3800;48.922;9.444;2022-08-19T13:51:21;21.40;99.90
7518;DHT22;3800;48.922;9.444;2022-08-19T13:53:49;21.40;99.90
7518;DHT22;3800;48.922;9.444;2022-08-19T13:56:18;21.50;99.90
7518;DHT22;3800;48.922;9.444;2022-08-19T13:58:47;21.50;99.90
7518;DHT22;3800;48.922;9.444;2022-08-19T14:01:18;21.60;99.90
7518;DHT22;3800;48.922;9.444;2022-08-19T14:03:46;21.60;99.90
7518;DHT22;3800;48.922;9.444;2022-08-19T14:06:14;21.70;99.90
7518;DHT22;3800;48.922;9.444;2022-08-19T14:08:42;21.80;99.90
7518;DHT22;3800;48.922;9.444;2022-08-19T14:11:11;21.90;99.90
7518;DHT22;3800;48.922;9.444;2022-08-19T14:13:40;21.90;99.90
7518;DHT22;3800;48.922;9.444;2022-08-19T14:16:09;21.80;99.90
7518;DHT22;3800;48.922;9.444;2022-08-19T14:18:38;21.80;99.90
7518;DHT22;3800;48.922;9.444;2022-08-19T14:21:06;21.70;99.90
7518;DHT22;3800;48.922;9.444;2022-08-19T14:23:35;21.60;99.90
7518;DHT22;3800;48.922;9.444;2022-08-19T14:26:06;21.60;99.90
7518;DHT22;3800;48.922;9.444;2022-08-19T14:28:33;21.50;99.90
7518;DHT22;3800;48.922;9.444;2022-08-19T14:31:03;21.50;99.90
7518;DHT22;3800;48.922;9.444;2022-08-19T14:33:32;21.40;99.90
7518;DHT22;3800;48.922;9.444;2022-08-19T14:36:01;21.30;99.90
7518;DHT22;3800;48.922;9.444;2022-08-19T14:38:30;21.20;99.90
7518;DHT22;3800;48.922;9.444;2022-08-19T14:41:08;21.10;99.90
7518;DHT22;3800;48.922;9.444;2022-08-19T14:43:35;21.10;99.90
7518;DHT22;3800;48.922;9.444;2022-08-19T14:46:04;21.00;99.90
7518;DHT22;3800;48.922;9.444;2022-08-19T14:48:33;21.10;99.90
7518;DHT22;3800;48.922;9.444;2022-08-19T14:51:01;21.00;99.90
7518;DHT22;3800;48.922;9.444;2022-08-19T14:53:30;21.10;99.90
7518;DHT22;3800;48.922;9.444;2022-08-19T14:55:59;21.10;99.90
7518;DHT22;3800;48.922;9.444;2022-08-19T14:58:28;21.20;99.90
7518;DHT22;3800;48.922;9.444;2022-08-19T15:00:57;21.30;99.90
7518;DHT22;3800;48.922;9.444;2022-08-19T15:03:25;21.20;99.90
7518;DHT22;3800;48.922;9.444;2022-08-19T15:05:54;21.20;99.90
7518;DHT22;3800;48.922;9.444;2022-08-19T15:08:22;21.20;99.90
7518;DHT22;3800;48.922;9.444;2022-08-19T15:10:51;21.10;99.90
7518;DHT22;3800;48.922;9.444;2022-08-19T15:13:19;21.00;99.90
7518;DHT22;3800;48.922;9.444;2022-08-19T15:15:47;20.90;99.90
7518;DHT22;3800;48.922;9.444;2022-08-19T15:18:16;20.70;99.90
7518;DHT22;3800;48.922;9.444;2022-08-19T15:20:44;20.60;99.90
7518;DHT22;3800;48.922;9.444;2022-08-19T15:23:13;20.50;99.90
7518;DHT22;3800;48.922;9.444;2022-08-19T15:25:41;20.40;99.90
7518;DHT22;3800;48.922;9.444;2022-08-19T15:28:10;20.40;99.90
7518;DHT22;3800;48.922;9.444;2022-08-19T15:30:39;20.30;99.90
7518;DHT22;3800;48.922;9.444;2022-08-19T15:33:07;20.30;99.90
7518;DHT22;3800;48.922;9.444;2022-08-19T15:35:35;20.20;99.90
7518;DHT22;3800;48.922;9.444;2022-08-19T15:38:03;20.20;99.90
7518;DHT22;3800;48.922;9.444;2022-08-19T15:40:31;20.10;99.90
7518;DHT22;3800;48.922;9.444;2022-08-19T15:43:00;20.10;99.90
7518;DHT22;3800;48.922;9.444;2022-08-19T15:45:28;20.00;99.90
7518;DHT22;3800;48.922;9.444;2022-08-19T15:47:59;20.00;99.90
7518;DHT22;3800;48.922;9.444;2022-08-19T15:50:27;19.90;99.90
7518;DHT22;3800;48.922;9.444;2022-08-19T15:52:58;19.90;99.90
7518;DHT22;3800;48.922;9.444;2022-08-19T15:55:25;19.90;99.90
7518;DHT22;3800;48.922;9.444;2022-08-19T15:57:53;19.90;99.90
7518;DHT22;3800;48.922;9.444;2022-08-19T16:00:27;19.90;99.90
7518;DHT22;3800;48.922;9.444;2022-08-19T16:03:00;19.90;99.90
7518;DHT22;3800;48.922;9.444;2022-08-19T16:05:34;19.90;99.90
7518;DHT22;3800;48.922;9.444;2022-08-19T16:08:09;20.00;99.90
7518;DHT22;3800;48.922;9.444;2022-08-19T16:10:37;20.00;99.90
7518;DHT22;3800;48.922;9.444;2022-08-19T16:13:05;20.00;99.90
7518;DHT22;3800;48.922;9.444;2022-08-19T16:15:33;20.10;99.90
7518;DHT22;3800;48.922;9.444;2022-08-19T16:18:02;20.10;99.90